createdAt,value
2017-09-07T00:00:40.447Z,14.70
2017-09-07T00:03:07.916Z,14.70
2017-09-07T00:05:35.417Z,14.70
2017-09-07T00:08:02.879Z,14.70
2017-09-07T00:10:30.355Z,14.70
2017-09-07T00:12:57.812Z,14.60
2017-09-07T00:15:25.266Z,14.60
2017-09-07T00:17:52.734Z,14.50
2017-09-07T00:20:20.200Z,14.60
2017-09-07T00:22:47.668Z,14.50
2017-09-07T00:25:15.128Z,14.50
2017-09-07T00:27:42.583Z,14.50
2017-09-07T00:30:10.082Z,14.60
2017-09-07T00:32:37.535Z,14.50
2017-09-07T00:35:05.095Z,14.60
2017-09-07T00:37:32.558Z,14.50
2017-09-07T00:40:00.031Z,14.50
2017-09-07T00:42:27.510Z,14.60
2017-09-07T00:44:54.975Z,14.60
2017-09-07T00:47:22.435Z,14.50
2017-09-07T00:49:49.912Z,14.50
2017-09-07T00:52:17.370Z,14.50
2017-09-07T00:54:44.847Z,14.50
2017-09-07T00:57:12.307Z,14.50
2017-09-07T00:59:39.764Z,14.50
2017-09-07T01:02:07.236Z,14.40
2017-09-07T01:04:34.691Z,14.50
2017-09-07T01:07:02.150Z,14.40
2017-09-07T01:09:29.622Z,14.40
2017-09-07T01:11:57.098Z,14.40
2017-09-07T01:14:25.322Z,14.30
2017-09-07T01:16:52.795Z,14.20
2017-09-07T01:19:20.263Z,14.30
2017-09-07T01:21:47.736Z,14.20
2017-09-07T01:24:15.218Z,14.20
2017-09-07T01:26:42.674Z,14.20
2017-09-07T01:29:10.259Z,14.20
2017-09-07T01:31:37.713Z,14.20
2017-09-07T01:34:05.179Z,14.20
2017-09-07T01:36:32.646Z,14.20
2017-09-07T01:39:00.186Z,14.20
2017-09-07T01:41:27.651Z,14.20
2017-09-07T01:43:55.801Z,14.10
2017-09-07T01:46:23.271Z,14.10
2017-09-07T01:48:50.743Z,14.10
2017-09-07T01:51:18.201Z,14.10
2017-09-07T01:53:45.670Z,14.10
2017-09-07T01:56:13.123Z,14.10
2017-09-07T01:58:40.586Z,14.10
2017-09-07T02:01:08.059Z,14.10
2017-09-07T02:03:35.525Z,14.10
2017-09-07T02:06:02.995Z,14.10
2017-09-07T02:08:31.215Z,14.20
2017-09-07T02:10:58.670Z,14.10
2017-09-07T02:13:26.158Z,14.10
2017-09-07T02:15:53.608Z,14.10
2017-09-07T02:18:21.078Z,14.10
2017-09-07T02:20:48.547Z,14.10
2017-09-07T02:23:16.036Z,14.10
2017-09-07T02:25:43.507Z,14.10
2017-09-07T02:28:10.955Z,14.10
2017-09-07T02:30:38.427Z,14.10
2017-09-07T02:33:06.944Z,14.10
2017-09-07T02:35:34.410Z,14.10
2017-09-07T02:38:01.877Z,14.20
2017-09-07T02:40:29.335Z,14.20
2017-09-07T02:42:56.818Z,14.20
2017-09-07T02:45:24.271Z,14.20
2017-09-07T02:47:51.750Z,14.10
2017-09-07T02:50:19.207Z,14.20
2017-09-07T02:52:46.667Z,14.10
2017-09-07T02:55:14.135Z,14.10
2017-09-07T02:57:41.590Z,14.10
2017-09-07T03:00:09.089Z,14.10
2017-09-07T03:02:36.562Z,14.10
2017-09-07T03:05:04.022Z,14.10
2017-09-07T03:07:31.511Z,14.10
2017-09-07T03:09:58.978Z,14.10
2017-09-07T03:12:26.458Z,14.10
2017-09-07T03:14:53.947Z,14.10
2017-09-07T03:17:21.395Z,14.10
2017-09-07T03:19:48.901Z,14.00
2017-09-07T03:22:16.350Z,14.00
2017-09-07T03:24:43.826Z,14.00
2017-09-07T03:27:11.282Z,14.00
2017-09-07T03:29:38.758Z,14.00
2017-09-07T03:32:06.219Z,14.00
2017-09-07T03:34:33.676Z,14.00
2017-09-07T03:37:01.916Z,14.10
2017-09-07T03:39:29.382Z,14.00
2017-09-07T03:41:56.851Z,14.00
2017-09-07T03:44:24.309Z,14.00
2017-09-07T03:46:52.547Z,14.00
2017-09-07T03:49:20.024Z,14.00
2017-09-07T03:51:47.475Z,14.00
2017-09-07T03:54:14.958Z,13.90
2017-09-07T03:56:42.444Z,13.90
2017-09-07T03:59:09.912Z,13.80
2017-09-07T04:01:37.368Z,13.80
2017-09-07T04:04:04.824Z,13.80
2017-09-07T04:06:32.302Z,13.70
2017-09-07T04:08:59.756Z,13.60
2017-09-07T04:11:27.231Z,13.60
2017-09-07T04:13:55.246Z,13.60
2017-09-07T04:16:22.710Z,13.60
2017-09-07T04:18:50.190Z,13.60
2017-09-07T04:21:17.656Z,13.50
2017-09-07T04:23:45.147Z,13.50
2017-09-07T04:26:12.637Z,13.60
2017-09-07T04:28:40.106Z,13.60
2017-09-07T04:31:07.555Z,13.60
2017-09-07T04:33:35.007Z,13.60
2017-09-07T04:36:02.487Z,13.60
2017-09-07T04:38:29.959Z,13.60
2017-09-07T04:40:57.435Z,13.60
2017-09-07T04:43:25.658Z,13.60
2017-09-07T04:45:53.131Z,13.50
2017-09-07T04:48:20.595Z,13.50
2017-09-07T04:50:48.096Z,13.50
2017-09-07T04:53:15.556Z,13.40
2017-09-07T04:55:43.022Z,13.40
2017-09-07T04:58:10.491Z,13.40
2017-09-07T05:00:37.952Z,13.40
2017-09-07T05:03:05.430Z,13.40
2017-09-07T05:05:32.907Z,13.40
2017-09-07T05:08:00.398Z,13.40
2017-09-07T05:10:27.852Z,13.40
2017-09-07T05:12:55.307Z,13.50
2017-09-07T05:15:22.795Z,13.50
2017-09-07T05:17:50.251Z,13.50
2017-09-07T05:20:17.727Z,13.40
2017-09-07T05:22:45.190Z,13.50
2017-09-07T05:25:12.655Z,13.50
2017-09-07T05:27:40.120Z,13.60
2017-09-07T05:30:07.591Z,13.60
2017-09-07T05:32:35.060Z,13.60
2017-09-07T05:35:02.522Z,13.70
2017-09-07T05:37:29.994Z,13.70
2017-09-07T05:39:57.470Z,13.70
2017-09-07T05:42:24.935Z,13.70
2017-09-07T05:44:55.960Z,13.80
2017-09-07T05:47:23.513Z,13.80
2017-09-07T05:49:50.986Z,13.80
2017-09-07T05:52:18.443Z,13.90
2017-09-07T05:54:45.903Z,13.90
2017-09-07T05:57:13.374Z,13.90
2017-09-07T05:59:40.836Z,13.90
2017-09-07T06:02:08.315Z,14.00
2017-09-07T06:04:35.771Z,14.10
2017-09-07T06:07:03.252Z,14.10
2017-09-07T06:09:30.710Z,14.10
2017-09-07T06:11:58.191Z,14.20
2017-09-07T06:14:25.650Z,14.20
2017-09-07T06:16:53.124Z,14.20
2017-09-07T06:19:20.599Z,14.10
2017-09-07T06:21:48.054Z,14.20
2017-09-07T06:24:15.518Z,14.20
2017-09-07T06:26:42.987Z,14.20
2017-09-07T06:29:10.459Z,14.30
2017-09-07T06:31:37.915Z,14.40
2017-09-07T06:34:05.399Z,14.40
2017-09-07T06:36:32.848Z,14.50
2017-09-07T06:39:00.323Z,14.60
2017-09-07T06:41:27.786Z,14.70
2017-09-07T06:43:55.728Z,14.80
2017-09-07T06:46:23.194Z,14.80
2017-09-07T06:48:50.654Z,14.80
2017-09-07T06:51:18.130Z,14.80
2017-09-07T06:53:45.594Z,14.90
2017-09-07T06:56:13.094Z,14.90
2017-09-07T06:58:40.549Z,14.90
2017-09-07T07:01:08.001Z,14.90
2017-09-07T07:03:35.471Z,14.80
2017-09-07T07:06:02.927Z,14.80
2017-09-07T07:08:30.405Z,14.80
2017-09-07T07:10:57.876Z,14.80
2017-09-07T07:13:25.335Z,14.70
2017-09-07T07:15:52.811Z,14.70
2017-09-07T07:18:20.267Z,14.60
2017-09-07T07:20:47.761Z,14.60
2017-09-07T07:23:15.222Z,14.50
2017-09-07T07:25:42.675Z,14.40
2017-09-07T07:28:10.150Z,14.40
2017-09-07T07:30:37.619Z,14.50
2017-09-07T07:33:05.085Z,14.50
2017-09-07T07:35:32.554Z,14.70
2017-09-07T07:38:00.791Z,14.70
2017-09-07T07:40:28.242Z,14.70
2017-09-07T07:42:55.719Z,14.80
2017-09-07T07:45:23.178Z,15.00
2017-09-07T07:47:50.659Z,15.10
2017-09-07T07:50:18.111Z,15.20
2017-09-07T07:52:45.610Z,15.30
2017-09-07T07:55:13.170Z,15.30
2017-09-07T07:57:40.635Z,15.50
2017-09-07T08:00:08.118Z,15.50
2017-09-07T08:02:35.580Z,15.50
2017-09-07T08:05:03.055Z,15.40
2017-09-07T08:07:30.552Z,15.40
2017-09-07T08:09:58.019Z,15.50
2017-09-07T08:12:25.491Z,15.50
2017-09-07T08:14:52.956Z,15.60
2017-09-07T08:17:20.435Z,15.70
2017-09-07T08:19:47.894Z,15.70
2017-09-07T08:22:15.351Z,15.70
2017-09-07T08:24:42.858Z,15.70
2017-09-07T08:27:10.331Z,15.70
2017-09-07T08:29:37.787Z,15.60
2017-09-07T08:32:05.263Z,15.90
2017-09-07T08:34:32.723Z,15.90
2017-09-07T08:37:28.944Z,16.00
2017-09-07T08:39:56.422Z,16.00
2017-09-07T08:42:24.646Z,16.20
2017-09-07T08:44:52.098Z,16.20
2017-09-07T08:47:19.581Z,16.30
2017-09-07T08:49:47.041Z,16.30
2017-09-07T08:52:14.542Z,16.30
2017-09-07T08:54:42.755Z,16.70
2017-09-07T08:57:10.235Z,16.70
2017-09-07T08:59:37.699Z,16.70
2017-09-07T09:02:05.168Z,17.20
2017-09-07T09:04:33.386Z,17.60
2017-09-07T09:07:00.860Z,17.60
2017-09-07T09:09:28.326Z,17.70
2017-09-07T09:11:55.802Z,17.50
2017-09-07T09:14:24.052Z,17.70
2017-09-07T09:16:51.510Z,17.70
2017-09-07T09:19:18.976Z,17.90
2017-09-07T09:21:46.442Z,17.90
2017-09-07T09:24:13.910Z,18.00
2017-09-07T09:26:42.147Z,18.30
2017-09-07T09:29:09.614Z,18.30
2017-09-07T09:31:37.087Z,18.30
2017-09-07T09:34:04.559Z,18.30
2017-09-07T09:36:32.832Z,18.30
2017-09-07T09:39:00.273Z,18.20
2017-09-07T09:41:27.740Z,18.20
2017-09-07T09:43:55.973Z,18.50
2017-09-07T09:46:23.431Z,18.50
2017-09-07T09:48:50.913Z,18.30
2017-09-07T09:51:18.374Z,18.10
2017-09-07T09:53:45.836Z,18.10
2017-09-07T09:56:13.308Z,18.20
2017-09-07T09:58:41.541Z,18.70
2017-09-07T10:01:08.998Z,18.70
2017-09-07T10:03:36.487Z,19.00
2017-09-07T10:06:04.711Z,19.30
2017-09-07T10:08:32.164Z,19.30
2017-09-07T10:10:59.640Z,19.50
2017-09-07T10:13:27.094Z,19.80
2017-09-07T10:15:54.551Z,20.20
2017-09-07T10:18:22.028Z,20.60
2017-09-07T10:20:49.487Z,21.00
2017-09-07T10:23:16.963Z,20.40
2017-09-07T10:25:45.195Z,21.20
2017-09-07T10:28:12.670Z,21.20
2017-09-07T10:30:40.123Z,21.80
2017-09-07T10:33:07.591Z,21.90
2017-09-07T10:35:35.834Z,21.40
2017-09-07T10:38:03.331Z,21.40
2017-09-07T10:40:31.556Z,20.90
2017-09-07T10:42:59.016Z,20.90
2017-09-07T10:45:26.490Z,20.60
2017-09-07T10:47:53.946Z,20.00
2017-09-07T10:50:21.394Z,20.40
2017-09-07T10:52:48.923Z,20.30
2017-09-07T10:55:16.391Z,19.90
2017-09-07T10:57:43.867Z,19.60
2017-09-07T11:00:11.319Z,19.70
2017-09-07T11:02:38.822Z,19.20
2017-09-07T11:05:06.260Z,19.30
2017-09-07T11:07:33.729Z,19.60
2017-09-07T11:10:01.975Z,19.80
2017-09-07T11:12:29.435Z,19.80
2017-09-07T11:14:56.902Z,20.20
2017-09-07T11:17:25.150Z,20.30
2017-09-07T11:19:52.614Z,20.30
2017-09-07T11:22:20.060Z,19.90
2017-09-07T11:24:47.536Z,19.50
2017-09-07T11:27:14.991Z,19.30
2017-09-07T11:29:42.467Z,19.50
2017-09-07T11:32:09.967Z,19.70
2017-09-07T11:34:37.428Z,19.70
2017-09-07T11:37:04.884Z,19.50
2017-09-07T11:39:32.356Z,18.90
2017-09-07T11:41:59.826Z,18.80
2017-09-07T11:44:27.279Z,18.70
2017-09-07T11:46:54.754Z,18.60
2017-09-07T11:49:22.237Z,18.70
2017-09-07T11:51:50.474Z,18.90
2017-09-07T11:54:17.935Z,18.90
2017-09-07T11:56:45.411Z,18.90
2017-09-07T11:59:13.635Z,18.70
2017-09-07T12:01:41.092Z,18.70
2017-09-07T12:04:08.572Z,18.70
2017-09-07T12:06:36.036Z,18.70
2017-09-07T12:09:03.507Z,18.80
2017-09-07T12:11:31.732Z,19.30
2017-09-07T12:13:59.200Z,19.20
2017-09-07T12:16:26.676Z,19.10
2017-09-07T12:18:54.146Z,19.30
2017-09-07T12:21:21.614Z,19.90
2017-09-07T12:23:49.838Z,20.70
2017-09-07T12:26:17.311Z,20.70
2017-09-07T12:28:44.782Z,20.60
2017-09-07T12:31:12.247Z,20.50
2017-09-07T12:33:40.497Z,19.80
2017-09-07T12:36:07.959Z,19.80
2017-09-07T12:38:35.443Z,19.60
2017-09-07T12:41:03.705Z,19.40
2017-09-07T12:43:31.155Z,19.40
2017-09-07T12:45:58.611Z,19.60
2017-09-07T12:48:26.071Z,19.90
2017-09-07T12:50:53.551Z,20.20
2017-09-07T12:53:21.771Z,19.90
2017-09-07T12:55:49.314Z,19.90
2017-09-07T12:58:16.775Z,19.40
2017-09-07T13:00:44.242Z,19.50
2017-09-07T13:03:11.708Z,19.60
2017-09-07T13:05:39.173Z,19.70
2017-09-07T13:08:06.651Z,20.00
2017-09-07T13:10:34.875Z,20.80
2017-09-07T13:13:02.348Z,20.80
2017-09-07T13:15:29.821Z,21.30
2017-09-07T13:17:57.271Z,21.50
2017-09-07T13:20:24.780Z,21.70
2017-09-07T13:22:52.250Z,21.80
2017-09-07T13:25:19.698Z,21.50
2017-09-07T13:27:47.172Z,21.30
2017-09-07T13:30:14.652Z,21.20
2017-09-07T13:32:42.122Z,21.10
2017-09-07T13:35:09.637Z,21.00
2017-09-07T13:37:37.087Z,20.60
2017-09-07T13:40:04.563Z,20.00
2017-09-07T13:42:32.026Z,19.90
2017-09-07T13:44:59.494Z,20.30
2017-09-07T13:47:26.966Z,21.40
2017-09-07T13:49:54.422Z,22.30
2017-09-07T13:52:21.934Z,22.30
2017-09-07T13:54:49.391Z,21.40
2017-09-07T13:57:16.876Z,21.20
2017-09-07T13:59:44.341Z,21.10
2017-09-07T14:02:11.822Z,21.10
2017-09-07T14:04:40.035Z,20.90
2017-09-07T14:07:07.516Z,20.90
2017-09-07T14:09:34.984Z,21.10
2017-09-07T14:12:02.463Z,21.00
2017-09-07T14:14:30.711Z,21.10
2017-09-07T14:16:58.166Z,21.10
2017-09-07T14:19:25.644Z,21.40
2017-09-07T14:21:53.107Z,21.00
2017-09-07T14:24:21.343Z,20.00
2017-09-07T14:26:48.819Z,20.00
2017-09-07T14:29:16.275Z,19.80
2017-09-07T14:31:43.748Z,19.40
2017-09-07T14:34:11.231Z,19.20
2017-09-07T14:36:38.708Z,19.20
2017-09-07T14:39:06.191Z,19.20
2017-09-07T14:41:33.655Z,19.40
2017-09-07T14:44:01.123Z,19.70
2017-09-07T14:46:28.583Z,20.10
2017-09-07T14:48:56.076Z,20.20
2017-09-07T14:51:23.541Z,20.10
2017-09-07T14:53:51.020Z,20.00
2017-09-07T14:56:18.479Z,19.80
2017-09-07T14:58:45.959Z,19.70
2017-09-07T15:01:13.423Z,19.50
2017-09-07T15:03:40.929Z,19.30
2017-09-07T15:06:08.399Z,19.20
2017-09-07T15:08:35.862Z,19.00
2017-09-07T15:11:03.351Z,18.90
2017-09-07T15:13:31.692Z,18.80
2017-09-07T15:15:59.232Z,18.70
2017-09-07T15:18:26.691Z,18.70
2017-09-07T15:20:54.150Z,18.60
2017-09-07T15:23:21.628Z,18.60
2017-09-07T15:25:49.092Z,18.50
2017-09-07T15:28:16.553Z,18.40
2017-09-07T15:30:44.046Z,18.20
2017-09-07T15:33:12.280Z,18.10
2017-09-07T15:35:39.756Z,18.00
2017-09-07T15:38:08.007Z,18.00
2017-09-07T15:40:35.471Z,18.00
2017-09-07T15:43:02.948Z,18.00
2017-09-07T15:45:31.188Z,18.10
2017-09-07T15:47:58.668Z,18.00
2017-09-07T15:50:26.908Z,18.10
2017-09-07T15:52:54.454Z,18.10
2017-09-07T15:55:21.924Z,18.20
2017-09-07T15:57:49.417Z,18.30
2017-09-07T16:00:16.885Z,18.40
2017-09-07T16:02:45.143Z,18.50
2017-09-07T16:05:12.608Z,18.40
2017-09-07T16:07:40.088Z,18.40
2017-09-07T16:10:07.598Z,18.10
2017-09-07T16:12:35.078Z,18.00
2017-09-07T16:15:02.539Z,17.90
2017-09-07T16:17:30.016Z,17.90
2017-09-07T16:19:58.275Z,18.00
2017-09-07T16:22:25.779Z,18.00
2017-09-07T16:24:53.239Z,18.00
2017-09-07T16:27:20.727Z,17.90
2017-09-07T16:29:48.195Z,17.80
2017-09-07T16:32:16.419Z,17.60
2017-09-07T16:34:44.002Z,17.50
2017-09-07T16:37:11.447Z,17.50
2017-09-07T16:39:38.926Z,17.40
2017-09-07T16:42:06.407Z,17.30
2017-09-07T16:44:33.876Z,17.20
2017-09-07T16:47:02.143Z,17.20
2017-09-07T16:49:30.368Z,17.10
2017-09-07T16:51:57.831Z,17.10
2017-09-07T16:54:25.309Z,17.10
2017-09-07T16:56:52.768Z,17.00
2017-09-07T16:59:20.250Z,17.00
2017-09-07T17:01:48.483Z,17.00
2017-09-07T17:04:15.967Z,17.00
2017-09-07T17:06:44.214Z,17.00
2017-09-07T17:09:11.715Z,17.00
2017-09-07T17:11:39.935Z,17.00
2017-09-07T17:14:07.436Z,17.00
2017-09-07T17:16:35.672Z,16.90
2017-09-07T17:19:03.151Z,16.90
2017-09-07T17:21:30.623Z,16.80
2017-09-07T17:23:58.862Z,16.70
2017-09-07T17:26:26.344Z,16.70
2017-09-07T17:28:53.824Z,16.70
2017-09-07T17:31:22.084Z,16.70
2017-09-07T17:33:50.312Z,16.60
2017-09-07T17:36:17.854Z,16.60
2017-09-07T17:38:45.315Z,16.60
2017-09-07T17:41:12.778Z,16.50
2017-09-07T17:43:40.250Z,16.50
2017-09-07T17:46:07.743Z,16.40
2017-09-07T17:48:35.971Z,16.40
2017-09-07T17:51:03.428Z,16.40
2017-09-07T17:53:30.910Z,16.30
2017-09-07T17:55:58.391Z,16.30
2017-09-07T17:58:26.705Z,16.20
2017-09-07T18:00:54.183Z,16.20
2017-09-07T18:03:21.651Z,16.20
2017-09-07T18:05:49.121Z,16.20
2017-09-07T18:08:18.103Z,16.20
2017-09-07T18:10:45.582Z,16.20
2017-09-07T18:13:13.795Z,16.20
2017-09-07T18:15:41.278Z,16.20
2017-09-07T18:18:08.751Z,16.20
2017-09-07T18:20:36.229Z,16.20
2017-09-07T18:23:04.509Z,16.20
2017-09-07T18:25:32.719Z,16.10
2017-09-07T18:28:00.205Z,16.10
2017-09-07T18:30:27.655Z,16.00
2017-09-07T18:32:55.127Z,16.10
2017-09-07T18:35:22.595Z,16.10
2017-09-07T18:37:50.846Z,16.10
2017-09-07T18:40:18.299Z,16.00
2017-09-07T18:42:45.780Z,16.00
2017-09-07T18:45:13.241Z,15.90
2017-09-07T18:47:41.487Z,15.90
2017-09-07T18:50:08.960Z,15.90
2017-09-07T18:52:36.435Z,15.90
2017-09-07T18:55:04.670Z,15.90
2017-09-07T18:57:32.126Z,15.90
2017-09-07T18:59:59.610Z,15.90
2017-09-07T19:02:27.839Z,15.90
2017-09-07T19:04:55.311Z,15.90
2017-09-07T19:07:22.826Z,15.90
2017-09-07T19:09:50.283Z,15.80
2017-09-07T19:12:17.771Z,15.80
2017-09-07T19:14:45.235Z,15.70
2017-09-07T19:17:12.702Z,15.70
2017-09-07T19:19:40.196Z,15.70
2017-09-07T19:22:08.418Z,15.60
2017-09-07T19:24:35.879Z,15.60
2017-09-07T19:27:03.364Z,15.60
2017-09-07T19:29:30.833Z,15.60
2017-09-07T19:31:59.067Z,15.50
2017-09-07T19:34:26.540Z,15.50
2017-09-07T19:36:54.026Z,15.40
2017-09-07T19:39:22.260Z,15.40
2017-09-07T19:41:49.734Z,15.40
2017-09-07T19:44:17.215Z,15.40
2017-09-07T19:46:45.439Z,15.30
2017-09-07T19:49:12.919Z,15.30
2017-09-07T19:51:40.375Z,15.30
2017-09-07T19:54:07.866Z,15.30
2017-09-07T19:56:36.093Z,15.20
2017-09-07T19:59:03.580Z,15.20
2017-09-07T20:01:31.031Z,15.20
2017-09-07T20:03:58.537Z,15.20
2017-09-07T20:06:26.006Z,15.20
2017-09-07T20:08:53.478Z,15.10
2017-09-07T20:11:20.946Z,15.10
2017-09-07T20:13:48.418Z,15.10
2017-09-07T20:16:16.645Z,15.00
2017-09-07T20:18:44.120Z,15.00
2017-09-07T20:21:11.611Z,15.00
2017-09-07T20:23:39.070Z,15.00
2017-09-07T20:26:07.309Z,15.00
2017-09-07T20:28:34.771Z,15.00
2017-09-07T20:31:02.239Z,15.00
2017-09-07T20:33:29.714Z,15.00
2017-09-07T20:35:57.942Z,14.90
2017-09-07T20:38:25.391Z,14.90
2017-09-07T20:40:52.868Z,14.90
2017-09-07T20:43:20.322Z,14.90
2017-09-07T20:45:47.809Z,14.90
2017-09-07T20:48:15.263Z,14.90
2017-09-07T20:50:43.508Z,14.90
2017-09-07T20:53:10.971Z,14.80
2017-09-07T20:55:38.456Z,14.90
2017-09-07T20:58:06.680Z,14.90
2017-09-07T21:00:34.140Z,14.90
2017-09-07T21:03:01.613Z,14.90
2017-09-07T21:05:29.141Z,15.00
2017-09-07T21:07:56.618Z,15.10
2017-09-07T21:10:24.155Z,15.10
2017-09-07T21:12:51.603Z,15.10
2017-09-07T21:15:19.074Z,15.10
2017-09-07T21:17:46.554Z,15.20
2017-09-07T21:20:14.041Z,15.20
2017-09-07T21:22:42.294Z,15.20
2017-09-07T21:25:09.770Z,15.20
2017-09-07T21:27:37.218Z,15.20
2017-09-07T21:30:04.696Z,15.20
2017-09-07T21:32:32.914Z,15.30
2017-09-07T21:35:00.427Z,15.30
2017-09-07T21:37:28.650Z,15.20
2017-09-07T21:39:56.123Z,15.20
2017-09-07T21:42:23.607Z,15.20
2017-09-07T21:44:51.862Z,15.20
2017-09-07T21:47:19.324Z,15.20
2017-09-07T21:49:46.791Z,15.10
2017-09-07T21:52:15.026Z,15.10
2017-09-07T21:54:42.483Z,15.10
2017-09-07T21:57:09.967Z,15.00
2017-09-07T21:59:37.423Z,15.10
2017-09-07T22:02:04.887Z,15.00
2017-09-07T22:04:32.359Z,15.00
2017-09-07T22:07:00.583Z,15.00
2017-09-07T22:09:28.062Z,15.00
2017-09-07T22:11:55.516Z,15.10
2017-09-07T22:14:22.987Z,15.10
2017-09-07T22:16:51.215Z,15.10
2017-09-07T22:19:18.679Z,15.10
2017-09-07T22:21:46.148Z,15.10
2017-09-07T22:24:13.601Z,15.10
2017-09-07T22:26:41.084Z,15.20
2017-09-07T22:29:08.544Z,15.20
2017-09-07T22:31:36.011Z,15.20
2017-09-07T22:34:04.260Z,15.40
2017-09-07T22:36:31.712Z,15.40
2017-09-07T22:38:59.182Z,15.50
2017-09-07T22:41:26.646Z,15.50
2017-09-07T22:43:54.111Z,15.50
2017-09-07T22:46:22.339Z,15.50
2017-09-07T22:48:49.807Z,15.50
2017-09-07T22:51:17.281Z,15.60
2017-09-07T22:53:44.739Z,15.60
2017-09-07T22:56:12.223Z,15.60
2017-09-07T22:58:40.455Z,15.70
2017-09-07T23:01:07.920Z,15.60
2017-09-07T23:03:35.380Z,15.70
2017-09-07T23:06:02.854Z,15.70
2017-09-07T23:08:31.091Z,15.70
2017-09-07T23:10:58.622Z,15.60
2017-09-07T23:13:26.103Z,15.70
2017-09-07T23:15:53.573Z,15.70
2017-09-07T23:18:21.027Z,15.70
2017-09-07T23:20:48.492Z,15.70
2017-09-07T23:23:15.960Z,15.70
2017-09-07T23:25:44.198Z,15.70
2017-09-07T23:28:11.655Z,15.70
2017-09-07T23:30:39.138Z,15.70
2017-09-07T23:33:06.598Z,15.70
2017-09-07T23:35:34.079Z,15.80
2017-09-07T23:38:01.565Z,15.80
2017-09-07T23:40:29.027Z,15.80
2017-09-07T23:42:56.500Z,15.80
2017-09-07T23:45:23.966Z,15.80
2017-09-07T23:47:51.435Z,15.80
2017-09-07T23:50:18.907Z,15.80
2017-09-07T23:52:47.132Z,15.80
2017-09-07T23:55:14.602Z,15.80
2017-09-07T23:57:42.059Z,15.80
